Time;durP1;ratioP1;P1;durP2;ratioP2;P2;SDS_P1;SDS_P2;PMS_P1;PMS_P2;Temp;Humidity;BMP_temperature;BMP_pressure;BME280_temperature;BME280_humidity;BME280_pressure;Samples;Min_cycle;Max_cycle;Signal;HPM_P1;HPM_P2
2022/05/03 00:02:07;;;;;;;1999.90;999.90;;;12.50;99.90;;;;;;5067640;28;20473;-68
2022/05/03 00:04:54;;;;;;;1999.90;999.90;;;12.50;99.90;;;;;;5036096;28;20475;-68
2022/05/03 00:07:25;;;;;;;1999.90;999.90;;;12.30;99.90;;;;;;5072833;28;20442;-67
2022/05/03 00:10:02;;;;;;;1999.90;999.90;;;12.20;99.90;;;;;;5068452;28;21005;-68
2022/05/03 00:12:36;;;;;;;1999.90;999.90;;;12.10;99.90;;;;;;5058786;28;20445;-68
2022/05/03 00:15:04;;;;;;;1999.90;999.90;;;12.10;99.90;;;;;;5068757;28;20462;-68
2022/05/03 00:17:33;;;;;;;1999.90;999.90;;;12.00;99.90;;;;;;5075134;28;20495;-72
2022/05/03 00:20:01;;;;;;;1999.90;999.90;;;12.00;99.90;;;;;;5065441;28;20455;-68
2022/05/03 00:22:29;;;;;;;1999.90;999.90;;;12.10;99.90;;;;;;5044759;28;20902;-68
2022/05/03 00:24:55;;;;;;;1999.90;999.90;;;12.20;99.90;;;;;;5069056;28;20893;-67
2022/05/03 00:27:25;;;;;;;1999.90;999.90;;;12.20;99.90;;;;;;5066825;28;20468;-67
2022/05/03 00:29:52;;;;;;;1999.90;999.90;;;12.10;99.90;;;;;;5070490;28;20477;-67
2022/05/03 00:32:21;;;;;;;1999.90;999.90;;;11.90;99.90;;;;;;5060241;28;20516;-67
2022/05/03 00:34:48;;;;;;;1999.90;999.90;;;11.90;99.90;;;;;;5069631;28;20461;-71
2022/05/03 00:37:16;;;;;;;1999.90;999.90;;;11.80;99.90;;;;;;5054477;28;20450;-67
2022/05/03 00:39:44;;;;;;;1999.90;999.90;;;11.80;99.90;;;;;;5065673;28;21039;-70
2022/05/03 00:42:19;;;;;;;1999.90;999.90;;;11.70;99.90;;;;;;5074844;28;20488;-67
2022/05/03 00:44:58;;;;;;;1999.90;999.90;;;11.60;99.90;;;;;;5062863;28;20492;-72
2022/05/03 00:47:33;;;;;;;1999.90;999.90;;;11.70;99.90;;;;;;5072932;28;20544;-74
2022/05/03 00:50:05;;;;;;;1999.90;999.90;;;11.70;99.90;;;;;;5065155;28;20456;-72
2022/05/03 00:52:38;;;;;;;1999.90;999.90;;;11.70;99.90;;;;;;5033998;28;20879;-71
2022/05/03 00:55:44;;;;;;;1999.90;999.90;;;11.70;99.90;;;;;;5054511;28;20469;-72
2022/05/03 00:58:24;;;;;;;1999.90;999.90;;;11.70;99.90;;;;;;5028444;28;20467;-71
2022/05/03 01:01:01;;;;;;;1999.90;999.90;;;11.80;99.90;;;;;;5066125;28;20462;-72
2022/05/03 01:03:35;;;;;;;1999.90;999.90;;;11.80;99.90;;;;;;5051606;28;20488;-71
2022/05/03 01:06:18;;;;;;;1999.90;999.90;;;11.80;99.90;;;;;;5050510;28;20474;-71
2022/05/03 01:08:57;;;;;;;1999.90;999.90;;;11.80;99.90;;;;;;5074602;28;20452;-71
2022/05/03 01:11:34;;;;;;;1999.90;999.90;;;11.90;99.90;;;;;;5063233;28;20510;-72
2022/05/03 01:14:07;;;;;;;1999.90;999.90;;;11.90;99.90;;;;;;5073956;28;20527;-71
2022/05/03 01:16:41;;;;;;;1999.90;999.90;;;11.90;99.90;;;;;;5059609;28;20508;-72
2022/05/03 01:19:30;;;;;;;1999.90;999.90;;;12.00;99.90;;;;;;5071369;28;20449;-72
2022/05/03 01:22:08;;;;;;;1999.90;999.90;;;12.00;99.90;;;;;;5059858;28;20465;-71
2022/05/03 01:24:55;;;;;;;1999.90;999.90;;;12.00;99.90;;;;;;5034165;28;20471;-72
2022/05/03 01:27:49;;;;;;;1999.90;999.90;;;12.00;99.90;;;;;;5061313;28;20809;-71
2022/05/03 01:30:18;;;;;;;1999.90;999.90;;;11.80;99.90;;;;;;5068425;28;20894;-72
2022/05/03 01:32:46;;;;;;;1999.90;999.90;;;11.70;99.90;;;;;;5065840;28;20442;-72
2022/05/03 01:35:15;;;;;;;1999.90;999.90;;;11.60;99.90;;;;;;5055737;28;20454;-71
2022/05/03 01:38:05;;;;;;;1999.90;999.90;;;11.50;99.90;;;;;;5064690;28;20972;-72
2022/05/03 01:40:53;;;;;;;1999.90;999.90;;;11.50;99.90;;;;;;5045800;28;20476;-72
2022/05/03 01:43:33;;;;;;;1999.90;999.90;;;11.50;99.90;;;;;;5073881;28;20489;-72
2022/05/03 01:46:06;;;;;;;1999.90;999.90;;;11.40;99.90;;;;;;5045250;28;20491;-72
2022/05/03 01:51:43;;;;;;;1999.90;999.90;;;11.20;99.90;;;;;;5042854;28;20446;-69
2022/05/03 01:54:24;;;;;;;1999.90;999.90;;;11.20;99.90;;;;;;5069218;28;20543;-69
2022/05/03 01:57:01;;;;;;;1999.90;999.90;;;11.10;99.90;;;;;;5069079;28;20456;-73
2022/05/03 01:59:38;;;;;;;1999.90;999.90;;;11.10;99.90;;;;;;5057766;28;20449;-75
2022/05/03 02:02:18;;;;;;;1999.90;999.90;;;11.00;99.90;;;;;;5067855;28;20513;-71
2022/05/03 02:05:00;;;;;;;1999.90;999.90;;;11.00;99.90;;;;;;5062552;28;20518;-72
2022/05/03 02:07:41;;;;;;;1999.90;999.90;;;11.00;99.90;;;;;;5062109;28;20455;-70
2022/05/03 02:10:11;;;;;;;1999.90;999.90;;;11.00;99.90;;;;;;5068316;28;20499;-71
2022/05/03 02:12:41;;;;;;;1999.90;999.90;;;11.10;99.90;;;;;;5064407;28;20458;-70
2022/05/03 02:15:09;;;;;;;1999.90;999.90;;;11.10;99.90;;;;;;5071470;28;20487;-72
2022/05/03 02:17:54;;;;;;;1999.90;999.90;;;11.10;99.90;;;;;;5062880;28;20482;-72
2022/05/03 02:20:47;;;;;;;1999.90;999.90;;;11.10;99.90;;;;;;5072480;28;20490;-71
2022/05/03 02:23:29;;;;;;;1999.90;999.90;;;11.20;99.90;;;;;;5062941;28;20490;-71
2022/05/03 02:26:18;;;;;;;1999.90;999.90;;;11.20;99.90;;;;;;5073140;28;20507;-71
2022/05/03 02:28:50;;;;;;;1999.90;999.90;;;11.30;99.90;;;;;;5042919;28;20708;-70
2022/05/03 02:31:21;;;;;;;1999.90;999.90;;;11.30;99.90;;;;;;5074127;28;20444;-69
2022/05/03 02:33:53;;;;;;;1999.90;999.90;;;11.20;99.90;;;;;;5062331;28;20477;-71
2022/05/03 02:36:24;;;;;;;1999.90;999.90;;;11.10;99.90;;;;;;5062579;28;20497;-71
2022/05/03 02:38:59;;;;;;;1999.90;999.90;;;11.10;99.90;;;;;;5059855;28;20442;-70
2022/05/03 02:41:27;;;;;;;1999.90;999.90;;;11.10;99.90;;;;;;5064893;28;20457;-70
2022/05/03 02:43:56;;;;;;;1999.90;999.90;;;11.10;99.90;;;;;;5077382;28;20481;-69
2022/05/03 02:46:41;;;;;;;1999.90;999.90;;;11.00;99.90;;;;;;5067632;28;20879;-70
2022/05/03 02:49:16;;;;;;;1999.90;999.90;;;11.00;99.90;;;;;;5059742;28;20446;-71
2022/05/03 02:52:00;;;;;;;1999.90;999.90;;;11.00;99.90;;;;;;5067661;28;20468;-71
2022/05/03 02:54:38;;;;;;;1999.90;999.90;;;11.10;99.90;;;;;;5037204;28;20498;-69
2022/05/03 02:57:15;;;;;;;1999.90;999.90;;;11.10;99.90;;;;;;5064934;28;20513;-73
2022/05/03 03:02:40;;;;;;;1999.90;999.90;;;11.10;99.90;;;;;;5076221;28;20416;-72
2022/05/03 03:05:09;;;;;;;1999.90;999.90;;;11.20;99.90;;;;;;5054414;28;20466;-71
2022/05/03 03:07:46;;;;;;;1999.90;999.90;;;11.20;99.90;;;;;;5070565;28;20450;-72
2022/05/03 03:10:20;;;;;;;1999.90;999.90;;;11.10;99.90;;;;;;5056709;28;20477;-72
2022/05/03 03:12:54;;;;;;;1999.90;999.90;;;11.10;99.90;;;;;;5075382;28;20438;-70
2022/05/03 03:15:27;;;;;;;1999.90;999.90;;;11.10;99.90;;;;;;5063131;28;20546;-70
2022/05/03 03:17:56;;;;;;;1999.90;999.90;;;11.10;99.90;;;;;;5069798;28;20446;-69
2022/05/03 03:20:25;;;;;;;1999.90;999.90;;;10.90;99.90;;;;;;5053283;28;20461;-69
2022/05/03 03:22:52;;;;;;;1999.90;999.90;;;10.90;99.90;;;;;;5076028;28;20606;-71
2022/05/03 03:25:20;;;;;;;1999.90;999.90;;;10.80;99.90;;;;;;5059254;28;20494;-67
2022/05/03 03:27:49;;;;;;;1999.90;999.90;;;10.70;99.90;;;;;;5071029;28;20503;-72
2022/05/03 03:30:17;;;;;;;1999.90;999.90;;;10.50;99.90;;;;;;5063605;28;20472;-72
2022/05/03 03:32:47;;;;;;;1999.90;999.90;;;10.50;99.90;;;;;;5075223;28;20441;-71
2022/05/03 03:35:16;;;;;;;1999.90;999.90;;;10.60;99.90;;;;;;5059577;28;21058;-72
2022/05/03 03:37:45;;;;;;;1999.90;999.90;;;10.50;99.90;;;;;;5059968;28;20891;-72
2022/05/03 03:40:14;;;;;;;1999.90;999.90;;;10.50;99.90;;;;;;5058813;28;20466;-72
2022/05/03 03:42:42;;;;;;;1999.90;999.90;;;10.40;99.90;;;;;;5074438;28;20442;-72
2022/05/03 03:45:13;;;;;;;1999.90;999.90;;;10.40;99.90;;;;;;5061811;28;20560;-72
2022/05/03 03:47:41;;;;;;;1999.90;999.90;;;10.50;99.90;;;;;;5071289;28;20454;-71
2022/05/03 03:50:10;;;;;;;1999.90;999.90;;;10.40;99.90;;;;;;5056542;28;20469;-73
2022/05/03 03:52:41;;;;;;;1999.90;999.90;;;10.40;99.90;;;;;;5074271;28;20454;-69
2022/05/03 03:55:10;;;;;;;1999.90;999.90;;;10.50;99.90;;;;;;5059475;28;20548;-71
2022/05/03 03:57:38;;;;;;;1999.90;999.90;;;10.50;99.90;;;;;;5071659;28;20451;-73
2022/05/03 04:00:07;;;;;;;1999.90;999.90;;;10.50;99.90;;;;;;5057598;28;20469;-72
2022/05/03 04:02:35;;;;;;;1999.90;999.90;;;10.50;99.90;;;;;;5063418;28;20860;-71
2022/05/03 04:05:02;;;;;;;1999.90;999.90;;;10.60;99.90;;;;;;5074792;28;20481;-70
2022/05/03 04:07:29;;;;;;;1999.90;999.90;;;10.60;99.90;;;;;;5059419;28;20458;-70
2022/05/03 04:09:56;;;;;;;1999.90;999.90;;;10.40;99.90;;;;;;5071532;28;20499;-70
2022/05/03 04:12:25;;;;;;;1999.90;999.90;;;10.30;99.90;;;;;;5058905;28;20881;-72
2022/05/03 04:14:52;;;;;;;1999.90;999.90;;;10.20;99.90;;;;;;5059850;28;20524;-70
2022/05/03 04:17:19;;;;;;;1999.90;999.90;;;10.20;99.90;;;;;;5096156;22;20999;-66
2022/05/03 04:19:46;;;;;;;1999.90;999.90;;;10.20;99.90;;;;;;5077822;28;20494;-68
2022/05/03 04:22:26;;;;;;;1999.90;999.90;;;10.20;99.90;;;;;;5081402;28;20464;-68
2022/05/03 04:24:52;;;;;;;1999.90;999.90;;;10.20;99.90;;;;;;5077515;28;20509;-68
2022/05/03 04:27:20;;;;;;;1999.90;999.90;;;10.10;99.90;;;;;;5067348;28;20863;-68
2022/05/03 04:29:48;;;;;;;1999.90;999.90;;;10.00;99.90;;;;;;5072096;28;20445;-68
2022/05/03 04:32:15;;;;;;;1999.90;999.90;;;10.20;99.90;;;;;;5070611;28;20531;-68
2022/05/03 04:34:42;;;;;;;1999.90;999.90;;;10.30;99.90;;;;;;5072364;28;20808;-67
2022/05/03 04:37:09;;;;;;;1999.90;999.90;;;10.30;99.90;;;;;;5071147;28;20515;-66
2022/05/03 04:39:35;;;;;;;1999.90;999.90;;;10.50;99.90;;;;;;5072146;28;20834;-68
2022/05/03 04:42:02;;;;;;;1999.90;999.90;;;10.60;99.90;;;;;;5071105;28;20511;-66
2022/05/03 04:44:29;;;;;;;1999.90;999.90;;;10.60;99.90;;;;;;5064571;28;20473;-68
2022/05/03 04:46:57;;;;;;;1999.90;999.90;;;10.60;99.90;;;;;;5072122;28;20880;-67
2022/05/03 04:49:24;;;;;;;1999.90;999.90;;;10.50;99.90;;;;;;5070640;28;20898;-68
2022/05/03 04:51:50;;;;;;;1999.90;999.90;;;10.50;99.90;;;;;;5072194;28;20442;-68
2022/05/03 04:54:17;;;;;;;1999.90;999.90;;;10.50;99.90;;;;;;5071141;28;20458;-67
2022/05/03 04:56:48;;;;;;;1999.90;999.90;;;10.40;99.90;;;;;;5069356;28;20893;-68
2022/05/03 04:59:15;;;;;;;1999.90;999.90;;;10.20;99.90;;;;;;5070743;28;20960;-68
2022/05/03 05:01:41;;;;;;;1999.90;999.90;;;10.20;99.90;;;;;;5072081;28;20449;-68
2022/05/03 05:04:09;;;;;;;1999.90;999.90;;;10.20;99.90;;;;;;5070115;28;20527;-68
2022/05/03 05:06:36;;;;;;;1999.90;999.90;;;10.20;99.90;;;;;;5070928;28;20557;-68
2022/05/03 05:09:03;;;;;;;1999.90;999.90;;;10.30;99.90;;;;;;5068807;28;20518;-68
2022/05/03 05:11:30;;;;;;;1999.90;999.90;;;10.40;99.90;;;;;;5067282;28;20461;-68
2022/05/03 05:13:56;;;;;;;1999.90;999.90;;;10.50;99.90;;;;;;5067363;28;20534;-67
2022/05/03 05:16:23;;;;;;;1999.90;999.90;;;10.60;99.90;;;;;;5070068;28;20582;-68
2022/05/03 05:18:49;;;;;;;1999.90;999.90;;;10.70;99.90;;;;;;5071910;28;20441;-68
2022/05/03 05:21:17;;;;;;;1999.90;999.90;;;10.70;99.90;;;;;;5071840;28;20451;-68
2022/05/03 05:23:44;;;;;;;1999.90;999.90;;;10.80;99.90;;;;;;5071112;28;20485;-68
2022/05/03 05:26:12;;;;;;;1999.90;999.90;;;10.80;99.90;;;;;;5071707;28;20466;-67
2022/05/03 05:28:39;;;;;;;1999.90;999.90;;;10.80;99.90;;;;;;5071725;28;20453;-66
2022/05/03 05:31:06;;;;;;;1999.90;999.90;;;11.00;99.90;;;;;;5070461;28;20449;-66
2022/05/03 05:33:32;;;;;;;1999.90;999.90;;;11.20;99.90;;;;;;5071243;28;20938;-66
2022/05/03 05:35:59;;;;;;;1999.90;999.90;;;11.30;99.90;;;;;;5071709;28;20981;-66
2022/05/03 05:38:27;;;;;;;1999.90;999.90;;;11.50;99.90;;;;;;5070079;28;20991;-66
2022/05/03 05:40:55;;;;;;;1999.90;999.90;;;11.70;99.90;;;;;;5065841;28;20492;-66
2022/05/03 05:43:21;;;;;;;1999.90;999.90;;;11.90;99.90;;;;;;5066531;28;20454;-67
2022/05/03 05:45:48;;;;;;;1999.90;999.90;;;12.00;99.90;;;;;;5071034;28;20542;-66
2022/05/03 05:48:15;;;;;;;1999.90;999.90;;;12.00;99.90;;;;;;5069110;28;20552;-66
2022/05/03 05:50:42;;;;;;;1999.90;999.90;;;12.00;99.90;;;;;;5069700;28;20543;-66
2022/05/03 05:55:55;;;;;;;1999.90;999.90;;;12.00;99.90;;;;;;5065482;28;20468;-66
2022/05/03 05:58:21;;;;;;;1999.90;999.90;;;12.10;99.90;;;;;;5071298;28;20437;-67
2022/05/03 06:00:48;;;;;;;1999.90;999.90;;;12.10;99.90;;;;;;5070651;28;20518;-66
2022/05/03 06:03:16;;;;;;;1999.90;999.90;;;12.10;99.90;;;;;;5070852;28;20510;-66
2022/05/03 06:05:43;;;;;;;1999.90;999.90;;;12.10;99.90;;;;;;5059485;28;20481;-67
2022/05/03 06:08:10;;;;;;;1999.90;999.90;;;12.10;99.90;;;;;;5071133;28;20446;-67
2022/05/03 06:10:37;;;;;;;1999.90;999.90;;;12.10;99.90;;;;;;5070320;28;20467;-67
2022/05/03 06:13:06;;;;;;;1999.90;999.90;;;12.20;99.90;;;;;;5069784;28;20465;-67
2022/05/03 06:15:33;;;;;;;1999.90;999.90;;;12.40;99.90;;;;;;5070642;28;21076;-67
2022/05/03 06:18:01;;;;;;;1999.90;999.90;;;12.50;99.90;;;;;;5074808;28;20568;-66
2022/05/03 06:20:28;;;;;;;1999.90;999.90;;;12.60;99.90;;;;;;5073637;28;20844;-66
2022/05/03 06:22:55;;;;;;;1999.90;999.90;;;12.70;99.90;;;;;;5074220;28;20441;-67
2022/05/03 06:25:23;;;;;;;1999.90;999.90;;;12.70;99.90;;;;;;5072022;28;20511;-67
2022/05/03 06:27:50;;;;;;;1999.90;999.90;;;12.60;99.90;;;;;;5074024;28;20824;-66
2022/05/03 06:30:18;;;;;;;1999.90;999.90;;;12.50;99.90;;;;;;5074109;28;20465;-65
2022/05/03 06:32:45;;;;;;;1999.90;999.90;;;12.30;99.90;;;;;;5072851;28;20487;-65
2022/05/03 06:35:12;;;;;;;1999.90;999.90;;;12.30;99.90;;;;;;5070598;28;20469;-66
2022/05/03 06:37:39;;;;;;;1999.90;999.90;;;12.30;99.90;;;;;;5072653;28;20607;-66
2022/05/03 06:40:09;;;;;;;1999.90;999.90;;;12.30;99.90;;;;;;5074781;28;20437;-66
2022/05/03 06:42:37;;;;;;;1999.90;999.90;;;12.40;99.90;;;;;;5075706;28;20465;-66
2022/05/03 06:45:04;;;;;;;1999.90;999.90;;;12.40;99.90;;;;;;5071762;28;20499;-66
2022/05/03 06:47:32;;;;;;;1999.90;999.90;;;12.50;99.90;;;;;;5073790;28;20554;-66
2022/05/03 06:49:59;;;;;;;1999.90;999.90;;;12.60;99.90;;;;;;5072737;28;20499;-66
2022/05/03 06:52:27;;;;;;;1999.90;999.90;;;12.80;99.90;;;;;;5072889;28;20655;-66
2022/05/03 06:54:53;;;;;;;1999.90;999.90;;;13.10;99.90;;;;;;5069425;28;20535;-66
2022/05/03 06:57:20;;;;;;;1999.90;999.90;;;13.40;99.90;;;;;;5073814;28;20827;-68
2022/05/03 06:59:47;;;;;;;1999.90;999.90;;;13.60;99.90;;;;;;5072825;28;20539;-63
2022/05/03 07:02:13;;;;;;;1999.90;999.90;;;13.70;99.90;;;;;;5072823;28;20885;-66
2022/05/03 07:04:43;;;;;;;1999.90;999.90;;;13.90;99.10;;;;;;5074053;28;20473;-66
2022/05/03 07:07:11;;;;;;;1999.90;999.90;;;13.90;98.30;;;;;;5073964;28;21071;-64
2022/05/03 07:09:38;;;;;;;1999.90;999.90;;;13.80;98.40;;;;;;5073623;28;20541;-66
2022/05/03 07:12:06;;;;;;;1999.90;999.90;;;13.80;98.50;;;;;;5073592;28;20471;-65
2022/05/03 07:14:32;;;;;;;1999.90;999.90;;;14.00;99.00;;;;;;5074240;28;20822;-66
2022/05/03 07:16:59;;;;;;;1999.90;999.90;;;14.10;99.10;;;;;;5073856;28;20507;-66
2022/05/03 07:24:56;;;;;;;1999.90;999.90;;;13.60;97.80;;;;;;5095503;28;20737;-66
2022/05/03 07:27:22;;;;;;;1999.90;999.90;;;13.30;97.40;;;;;;5091346;28;20470;-65
2022/05/03 07:29:49;;;;;;;1999.90;999.90;;;13.10;97.80;;;;;;5087572;28;21029;-65
2022/05/03 07:32:16;;;;;;;1999.90;999.90;;;13.00;98.10;;;;;;5079467;28;20466;-66
2022/05/03 07:34:42;;;;;;;1999.90;999.90;;;13.10;97.70;;;;;;5074673;28;20487;-65
2022/05/03 07:37:09;;;;;;;1999.90;999.90;;;13.20;96.90;;;;;;5073989;28;20474;-65
2022/05/03 07:39:37;;;;;;;1999.90;999.90;;;13.20;97.50;;;;;;5070559;28;20450;-66
2022/05/03 07:42:04;;;;;;;1999.90;999.90;;;13.00;97.40;;;;;;5067158;28;20445;-65
2022/05/03 07:44:31;;;;;;;1999.90;999.90;;;12.90;98.10;;;;;;5070339;28;20489;-65
2022/05/03 07:46:58;;;;;;;1999.90;999.90;;;13.10;99.20;;;;;;5064877;28;20478;-66
2022/05/03 07:49:24;;;;;;;1999.90;999.90;;;13.20;99.50;;;;;;5066106;28;20465;-67
2022/05/03 07:51:51;;;;;;;1999.90;999.90;;;13.40;99.60;;;;;;5070444;28;20519;-66
2022/05/03 07:54:18;;;;;;;1999.90;999.90;;;13.50;98.80;;;;;;5070864;28;20458;-65
2022/05/03 07:56:46;;;;;;;1999.90;999.90;;;13.50;97.90;;;;;;5072097;28;20535;-68
2022/05/03 07:59:13;;;;;;;1999.90;999.90;;;13.60;96.30;;;;;;5073257;28;20981;-67
2022/05/03 08:01:41;;;;;;;1999.90;999.90;;;13.50;94.90;;;;;;5070998;28;20476;-67
2022/05/03 08:04:07;;;;;;;1999.90;999.90;;;13.60;95.50;;;;;;5072883;28;20453;-67
2022/05/03 08:06:35;;;;;;;1999.90;999.90;;;13.90;96.00;;;;;;5072947;28;20461;-67
2022/05/03 08:09:02;;;;;;;1999.90;999.90;;;14.40;95.50;;;;;;5072819;28;20448;-68
2022/05/03 08:11:29;;;;;;;1999.90;999.90;;;14.40;95.80;;;;;;5073147;28;20450;-67
2022/05/03 08:13:57;;;;;;;1999.90;999.90;;;14.30;95.20;;;;;;5070411;28;20527;-67
2022/05/03 08:16:23;;;;;;;1999.90;999.90;;;14.60;96.20;;;;;;5072327;28;20534;-67
2022/05/03 08:18:50;;;;;;;1999.90;999.90;;;14.80;96.10;;;;;;5071828;28;20471;-67
2022/05/03 08:21:17;;;;;;;1999.90;999.90;;;14.90;93.40;;;;;;5070255;28;20466;-66
2022/05/03 08:23:44;;;;;;;1999.90;999.90;;;14.70;94.20;;;;;;5066463;28;20446;-67
2022/05/03 08:26:11;;;;;;;1999.90;999.90;;;15.00;94.40;;;;;;5054943;28;20531;-67
2022/05/03 08:28:38;;;;;;;1999.90;999.90;;;15.30;94.00;;;;;;5069592;28;20523;-65
2022/05/03 08:31:07;;;;;;;1999.90;999.90;;;15.50;93.90;;;;;;5069931;28;20457;-66
2022/05/03 08:33:34;;;;;;;1999.90;999.90;;;15.90;93.00;;;;;;5071081;28;20465;-67
2022/05/03 08:36:01;;;;;;;1999.90;999.90;;;15.40;93.60;;;;;;5070986;28;21061;-66
2022/05/03 08:43:58;;;;;;;1999.90;999.90;;;14.60;94.90;;;;;;5071037;28;20490;-66
2022/05/03 08:46:26;;;;;;;1999.90;999.90;;;14.60;95.10;;;;;;5071646;28;20497;-66
2022/05/03 08:48:57;;;;;;;1999.90;999.90;;;14.60;96.00;;;;;;5069737;28;20470;-66
2022/05/03 08:51:24;;;;;;;1999.90;999.90;;;14.60;96.50;;;;;;5069794;28;20469;-66
2022/05/03 08:53:51;;;;;;;1999.90;999.90;;;14.70;96.00;;;;;;5070621;28;20889;-67
2022/05/03 08:56:19;;;;;;;1999.90;999.90;;;14.70;95.60;;;;;;5072105;28;20457;-66
2022/05/03 08:58:46;;;;;;;1999.90;999.90;;;14.90;96.60;;;;;;5072385;28;20447;-67
2022/05/03 09:01:13;;;;;;;1999.90;999.90;;;15.20;95.00;;;;;;5071977;28;20441;-66
2022/05/03 09:03:41;;;;;;;1999.90;999.90;;;15.10;94.20;;;;;;5071813;28;20888;-66
2022/05/03 09:06:08;;;;;;;1999.90;999.90;;;14.90;94.40;;;;;;5072248;28;20524;-66
2022/05/03 09:08:36;;;;;;;1999.90;999.90;;;15.00;95.10;;;;;;5072037;28;20455;-66
2022/05/03 09:11:14;;;;;;;1999.90;999.90;;;15.20;95.00;;;;;;5071957;28;20441;-66
2022/05/03 09:13:41;;;;;;;1999.90;999.90;;;15.30;95.40;;;;;;5051528;28;20898;-63
2022/05/03 09:16:13;;;;;;;1999.90;999.90;;;15.50;95.20;;;;;;5051347;28;20475;-66
2022/05/03 09:18:42;;;;;;;1999.90;999.90;;;15.90;95.30;;;;;;5051798;28;20450;-66
2022/05/03 09:24:07;;;;;;;1999.90;999.90;;;16.50;94.20;;;;;;5070895;28;20475;-66
2022/05/03 09:26:34;;;;;;;1999.90;999.90;;;16.40;92.90;;;;;;5071754;28;20484;-67
2022/05/03 09:29:02;;;;;;;1999.90;999.90;;;16.20;93.50;;;;;;5071664;28;20506;-67
2022/05/03 09:31:31;;;;;;;1999.90;999.90;;;16.10;93.40;;;;;;5071513;28;20450;-66
2022/05/03 09:34:01;;;;;;;1999.90;999.90;;;16.20;93.00;;;;;;5069424;28;20465;-67
2022/05/03 09:36:28;;;;;;;1999.90;999.90;;;16.10;93.30;;;;;;5070031;28;20469;-66
2022/05/03 09:38:56;;;;;;;1999.90;999.90;;;16.00;93.30;;;;;;5069791;28;20535;-66
2022/05/03 09:41:23;;;;;;;1999.90;999.90;;;15.90;94.30;;;;;;5069084;28;20468;-65
2022/05/03 09:44:04;;;;;;;1999.90;999.90;;;16.20;94.00;;;;;;5068956;28;20870;-66
2022/05/03 09:46:31;;;;;;;1999.90;999.90;;;16.50;93.00;;;;;;5062220;28;20495;-66
2022/05/03 09:49:00;;;;;;;1999.90;999.90;;;16.60;93.10;;;;;;5070584;28;20494;-65
2022/05/03 09:51:28;;;;;;;1999.90;999.90;;;16.80;92.90;;;;;;5075104;28;20991;-68
2022/05/03 09:53:57;;;;;;;1999.90;999.90;;;16.70;91.00;;;;;;5075294;28;21020;-68
2022/05/03 09:56:26;;;;;;;1999.90;999.90;;;16.30;91.90;;;;;;5060769;28;20470;-69
2022/05/03 09:58:56;;;;;;;1999.90;999.90;;;16.40;91.70;;;;;;5073412;28;20522;-68
2022/05/03 10:01:24;;;;;;;1999.90;999.90;;;16.50;90.90;;;;;;5074054;28;20485;-68
2022/05/03 10:03:51;;;;;;;1999.90;999.90;;;16.50;89.20;;;;;;5073370;28;20522;-68
2022/05/03 10:06:20;;;;;;;1999.90;999.90;;;16.30;90.80;;;;;;5072547;28;20489;-66
2022/05/03 10:08:49;;;;;;;1999.90;999.90;;;16.10;92.00;;;;;;5069439;28;20461;-68
2022/05/03 10:11:17;;;;;;;1999.90;999.90;;;16.00;93.00;;;;;;5074921;28;20452;-69
2022/05/03 10:13:44;;;;;;;1999.90;999.90;;;16.20;91.70;;;;;;5075048;28;20488;-67
2022/05/03 10:21:49;;;;;;;1999.90;999.90;;;16.40;91.00;;;;;;5039263;28;20621;-72
2022/05/03 10:24:16;;;;;;;1999.90;999.90;;;16.00;90.50;;;;;;5036177;28;20458;-71
2022/05/03 10:27:03;;;;;;;1999.90;999.90;;;16.10;91.30;;;;;;5044926;28;20485;-72
2022/05/03 10:29:32;;;;;;;1999.90;999.90;;;16.50;91.00;;;;;;5057742;28;20494;-71
2022/05/03 10:32:02;;;;;;;1999.90;999.90;;;16.90;90.50;;;;;;5055635;28;20453;-73
2022/05/03 10:34:59;;;;;;;1999.90;999.90;;;17.10;90.00;;;;;;5055120;28;20802;-74
2022/05/03 10:38:05;;;;;;;1999.90;999.90;;;17.40;88.80;;;;;;5012123;28;20447;-73
2022/05/03 10:40:34;;;;;;;1999.90;999.90;;;17.30;86.10;;;;;;4995453;28;20528;-73
2022/05/03 10:43:06;;;;;;;1999.90;999.90;;;17.10;86.60;;;;;;5029432;28;20502;-72
2022/05/03 10:45:48;;;;;;;1999.90;999.90;;;17.00;85.80;;;;;;5037019;28;20491;-72
2022/05/03 10:48:25;;;;;;;1999.90;999.90;;;16.80;86.60;;;;;;5037948;28;20536;-73
2022/05/03 10:50:53;;;;;;;1999.90;999.90;;;16.90;87.60;;;;;;5037109;28;20435;-72
2022/05/03 10:53:27;;;;;;;1999.90;999.90;;;17.00;86.90;;;;;;5035448;28;20461;-69
2022/05/03 10:56:16;;;;;;;1999.90;999.90;;;17.00;86.90;;;;;;5036309;28;20873;-71
2022/05/03 10:58:47;;;;;;;1999.90;999.90;;;16.90;88.20;;;;;;5056613;28;20481;-72
2022/05/03 11:01:18;;;;;;;1999.90;999.90;;;16.90;86.60;;;;;;5054876;28;20942;-73
2022/05/03 11:04:10;;;;;;;1999.90;999.90;;;16.80;89.90;;;;;;5055514;28;20473;-73
2022/05/03 11:06:41;;;;;;;1999.90;999.90;;;17.20;90.50;;;;;;5046177;28;20482;-71
2022/05/03 11:09:10;;;;;;;1999.90;999.90;;;17.30;86.90;;;;;;5036392;28;20497;-71
2022/05/03 11:12:01;;;;;;;1999.90;999.90;;;17.10;88.50;;;;;;5035922;28;20452;-71
2022/05/03 11:14:49;;;;;;;1999.90;999.90;;;17.40;88.00;;;;;;5036313;28;20439;-70
2022/05/03 11:17:17;;;;;;;1999.90;999.90;;;17.40;85.70;;;;;;5037908;28;20866;-71
2022/05/03 11:19:59;;;;;;;1999.90;999.90;;;17.70;85.40;;;;;;5045725;28;20513;-71
2022/05/03 11:22:35;;;;;;;1999.90;999.90;;;17.80;85.80;;;;;;5054765;28;20452;-71
2022/05/03 11:25:12;;;;;;;1999.90;999.90;;;17.80;82.10;;;;;;5056546;28;20440;-72
2022/05/03 11:27:40;;;;;;;1999.90;999.90;;;17.50;85.50;;;;;;5045913;28;20479;-73
2022/05/03 11:30:09;;;;;;;1999.90;999.90;;;17.40;86.20;;;;;;5036410;28;20517;-72
2022/05/03 11:32:39;;;;;;;1999.90;999.90;;;17.40;87.30;;;;;;5034758;28;20458;-72
2022/05/03 11:35:08;;;;;;;1999.90;999.90;;;17.70;86.90;;;;;;5035492;28;20455;-71
2022/05/03 11:37:37;;;;;;;1999.90;999.90;;;17.90;86.80;;;;;;5045221;28;20541;-71
2022/05/03 11:40:08;;;;;;;1999.90;999.90;;;17.80;86.20;;;;;;5056006;28;20477;-72
2022/05/03 11:42:40;;;;;;;1999.90;999.90;;;17.70;85.70;;;;;;5055564;28;20442;-72
2022/05/03 11:45:08;;;;;;;1999.90;999.90;;;17.80;88.10;;;;;;5055455;28;20450;-72
2022/05/03 11:47:41;;;;;;;1999.90;999.90;;;17.80;86.50;;;;;;5052878;28;20477;-73
2022/05/03 11:50:09;;;;;;;1999.90;999.90;;;18.00;88.40;;;;;;5053921;28;20470;-73
2022/05/03 11:58:07;;;;;;;1999.90;999.90;;;18.40;86.30;;;;;;5039511;28;20466;-73
2022/05/03 12:00:49;;;;;;;1999.90;999.90;;;18.30;84.40;;;;;;5035503;28;20824;-72
2022/05/03 12:03:17;;;;;;;1999.90;999.90;;;17.90;86.50;;;;;;5033891;28;20435;-73
2022/05/03 12:06:00;;;;;;;1999.90;999.90;;;18.00;89.10;;;;;;5031916;28;20483;-71
2022/05/03 12:08:28;;;;;;;1999.90;999.90;;;18.40;86.90;;;;;;5046202;28;20481;-72
2022/05/03 12:10:57;;;;;;;1999.90;999.90;;;18.40;85.50;;;;;;5047981;28;20524;-72
2022/05/03 12:13:29;;;;;;;1999.90;999.90;;;18.30;84.70;;;;;;5038151;28;20450;-72
2022/05/03 12:16:15;;;;;;;1999.90;999.90;;;18.30;86.40;;;;;;5050520;28;20474;-72
2022/05/03 12:18:44;;;;;;;1999.90;999.90;;;18.30;84.90;;;;;;5037726;28;20494;-73
2022/05/03 12:21:12;;;;;;;1999.90;999.90;;;18.30;84.90;;;;;;5050171;28;20462;-72
2022/05/03 12:23:42;;;;;;;1999.90;999.90;;;18.30;85.70;;;;;;5053594;28;20474;-72
2022/05/03 12:26:24;;;;;;;1999.90;999.90;;;18.10;84.80;;;;;;5043619;28;21234;-72
2022/05/03 12:28:52;;;;;;;1999.90;999.90;;;18.00;87.20;;;;;;5052001;28;20928;-71
2022/05/03 12:31:20;;;;;;;1999.90;999.90;;;18.00;86.00;;;;;;5044079;28;20463;-72
2022/05/03 12:33:50;;;;;;;1999.90;999.90;;;18.00;86.50;;;;;;5052782;28;20447;-71
2022/05/03 12:36:34;;;;;;;1999.90;999.90;;;18.20;85.60;;;;;;5041666;28;21024;-73
2022/05/03 12:39:13;;;;;;;1999.90;999.90;;;18.30;85.10;;;;;;5048499;28;20474;-71
2022/05/03 12:41:42;;;;;;;1999.90;999.90;;;18.60;88.00;;;;;;5037455;28;20463;-71
2022/05/03 12:44:10;;;;;;;1999.90;999.90;;;18.90;84.40;;;;;;5041144;28;20450;-71
2022/05/03 12:46:37;;;;;;;1999.90;999.90;;;19.00;85.30;;;;;;5036354;28;20480;-71
2022/05/03 12:49:11;;;;;;;1999.90;999.90;;;19.20;85.20;;;;;;5043120;28;20533;-69
2022/05/03 12:51:40;;;;;;;1999.90;999.90;;;18.80;85.50;;;;;;5053998;28;20459;-72